createdAt,value
2022-10-16T00:01:21.287Z,11.95
2022-10-16T00:03:49.185Z,12.14
2022-10-16T00:06:17.938Z,11.93
2022-10-16T00:08:44.756Z,11.96
2022-10-16T00:11:16.036Z,11.63
2022-10-16T00:13:44.587Z,11.66
2022-10-16T00:16:13.217Z,12.01
2022-10-16T00:18:40.159Z,12.19
2022-10-16T00:21:34.300Z,12.18
2022-10-16T00:24:06.743Z,12.32
2022-10-16T00:26:35.268Z,12.51
2022-10-16T00:29:02.081Z,12.62
2022-10-16T00:31:29.803Z,12.74
2022-10-16T00:33:56.557Z,12.67
2022-10-16T00:36:26.140Z,12.53
2022-10-16T00:38:55.672Z,12.22
2022-10-16T00:41:24.559Z,11.89
2022-10-16T00:43:53.924Z,11.89
2022-10-16T00:46:30.162Z,12.21
2022-10-16T00:49:05.531Z,12.25
2022-10-16T00:51:38.345Z,12.50
2022-10-16T00:54:09.775Z,12.49
2022-10-16T00:56:36.439Z,12.23
2022-10-16T00:59:08.589Z,11.86
2022-10-16T01:01:35.281Z,11.69
2022-10-16T01:04:01.889Z,11.32
2022-10-16T01:06:50.332Z,11.25
2022-10-16T01:09:27.474Z,11.18
2022-10-16T01:12:07.130Z,10.95
2022-10-16T01:15:00.821Z,10.94
2022-10-16T01:17:39.482Z,11.13
2022-10-16T01:20:27.888Z,11.37
2022-10-16T01:23:08.856Z,11.56
2022-10-16T01:25:56.474Z,11.67
2022-10-16T01:28:34.044Z,12.03
2022-10-16T01:31:02.727Z,12.19
2022-10-16T01:36:34.098Z,11.98
2022-10-16T01:39:03.486Z,11.16
2022-10-16T01:41:52.913Z,10.82
2022-10-16T01:44:29.586Z,10.53
2022-10-16T01:46:56.959Z,10.99
2022-10-16T01:49:27.513Z,11.24
2022-10-16T01:54:33.758Z,11.67
2022-10-16T01:58:12.798Z,11.86
2022-10-16T02:00:42.874Z,11.82
2022-10-16T02:03:12.233Z,11.53
2022-10-16T02:05:45.939Z,11.40
2022-10-16T02:08:13.437Z,11.23
2022-10-16T02:10:40.227Z,11.26
2022-10-16T02:13:21.178Z,11.39
2022-10-16T02:15:47.994Z,11.27
2022-10-16T02:18:15.684Z,11.52
2022-10-16T02:20:53.972Z,11.59
2022-10-16T02:23:41.426Z,11.43
2022-10-16T02:26:11.372Z,11.74
2022-10-16T02:28:53.363Z,11.31
2022-10-16T02:31:28.521Z,11.67
2022-10-16T02:33:58.979Z,11.79
2022-10-16T02:36:27.222Z,11.91
2022-10-16T02:38:55.065Z,11.95
2022-10-16T02:41:23.296Z,12.12
2022-10-16T02:43:50.572Z,11.72
2022-10-16T02:46:18.555Z,11.70
2022-10-16T02:48:45.211Z,11.40
2022-10-16T02:51:11.823Z,11.23
2022-10-16T02:53:38.354Z,11.17
2022-10-16T02:56:05.179Z,11.27
2022-10-16T02:58:31.760Z,10.91
2022-10-16T03:00:58.411Z,10.60
2022-10-16T03:03:25.047Z,10.75
2022-10-16T03:05:51.726Z,10.49
2022-10-16T03:08:18.554Z,9.96
2022-10-16T03:10:45.159Z,10.34
2022-10-16T03:13:11.758Z,10.78
2022-10-16T03:15:38.327Z,11.12
2022-10-16T03:18:05.049Z,10.78
2022-10-16T03:20:31.625Z,10.78
2022-10-16T03:22:58.283Z,11.22
2022-10-16T03:25:24.836Z,11.12
2022-10-16T03:27:51.398Z,11.04
2022-10-16T03:30:18.037Z,10.78
2022-10-16T03:32:47.955Z,10.46
2022-10-16T03:35:14.630Z,10.51
2022-10-16T03:37:41.194Z,10.53
2022-10-16T03:40:08.331Z,10.64
2022-10-16T03:42:34.880Z,10.95
2022-10-16T03:45:01.615Z,11.01
2022-10-16T03:47:28.449Z,11.19
2022-10-16T03:49:55.309Z,11.62
2022-10-16T03:52:21.912Z,11.11
2022-10-16T03:54:48.508Z,11.32
2022-10-16T03:57:15.163Z,11.36
2022-10-16T03:59:41.783Z,11.29
2022-10-16T04:02:08.384Z,10.99
2022-10-16T04:04:35.198Z,10.81
2022-10-16T04:07:01.949Z,10.82
2022-10-16T04:09:28.557Z,10.06
2022-10-16T04:11:55.271Z,9.87
2022-10-16T04:14:21.902Z,9.95
2022-10-16T04:16:48.511Z,9.90
2022-10-16T04:19:15.160Z,9.76
2022-10-16T04:21:41.759Z,10.03
2022-10-16T04:24:08.404Z,10.18
2022-10-16T04:26:34.998Z,10.27
2022-10-16T04:29:01.643Z,10.03
2022-10-16T04:31:28.299Z,10.09
2022-10-16T04:33:54.852Z,10.38
2022-10-16T04:36:24.254Z,10.55
2022-10-16T04:38:53.473Z,10.33
2022-10-16T04:41:20.067Z,10.11
2022-10-16T04:43:46.739Z,9.91
2022-10-16T04:46:13.512Z,9.78
2022-10-16T04:48:40.063Z,9.81
2022-10-16T04:51:06.830Z,9.98
2022-10-16T04:53:34.385Z,10.12
2022-10-16T04:56:01.045Z,10.27
2022-10-16T04:58:27.595Z,10.31
2022-10-16T05:00:54.948Z,10.22
2022-10-16T05:03:22.321Z,10.30
2022-10-16T05:05:49.204Z,10.49
2022-10-16T05:08:16.976Z,10.57
2022-10-16T05:10:44.869Z,10.44
2022-10-16T05:13:12.390Z,10.54
2022-10-16T05:15:38.982Z,10.46
2022-10-16T05:18:05.666Z,10.74
2022-10-16T05:20:34.208Z,10.71
2022-10-16T05:23:00.950Z,10.96
2022-10-16T05:25:27.549Z,10.64
2022-10-16T05:27:54.233Z,10.53
2022-10-16T05:30:21.267Z,10.60
2022-10-16T05:32:49.826Z,10.78
2022-10-16T05:35:17.793Z,10.91
2022-10-16T05:37:44.522Z,10.96
2022-10-16T05:40:11.993Z,11.08
2022-10-16T05:42:38.640Z,11.01
2022-10-16T05:45:07.178Z,11.08
2022-10-16T05:47:33.867Z,10.87
2022-10-16T05:50:00.443Z,10.77
2022-10-16T05:52:28.482Z,10.78
2022-10-16T05:54:55.062Z,10.69
2022-10-16T05:57:21.928Z,10.70
2022-10-16T05:59:48.492Z,10.66
2022-10-16T06:02:15.199Z,10.65
2022-10-16T06:04:42.118Z,10.67
2022-10-16T06:07:08.929Z,10.63
2022-10-16T06:09:35.544Z,10.81
2022-10-16T06:12:02.584Z,10.80
2022-10-16T06:14:29.194Z,10.86
2022-10-16T06:16:55.791Z,11.09
2022-10-16T06:19:22.518Z,11.25
2022-10-16T06:21:49.101Z,11.40
2022-10-16T06:24:15.746Z,11.57
2022-10-16T06:26:42.300Z,11.78
2022-10-16T06:29:09.868Z,11.49
2022-10-16T06:31:36.490Z,11.75
2022-10-16T06:34:04.361Z,11.32
2022-10-16T06:36:31.178Z,11.58
2022-10-16T06:38:57.755Z,11.49
2022-10-16T06:41:24.549Z,11.83
2022-10-16T06:43:51.841Z,11.64
2022-10-16T06:46:21.517Z,11.21
2022-10-16T06:48:48.392Z,11.94
2022-10-16T06:51:25.115Z,11.97
2022-10-16T06:54:04.986Z,12.05
2022-10-16T06:56:34.422Z,11.82
2022-10-16T06:59:02.075Z,12.28
2022-10-16T07:01:29.476Z,12.19
2022-10-16T07:03:56.237Z,12.51
2022-10-16T07:06:25.217Z,11.92
2022-10-16T07:08:52.357Z,12.11
2022-10-16T07:11:21.818Z,11.93
2022-10-16T07:13:52.964Z,12.40
2022-10-16T07:16:25.903Z,12.66
2022-10-16T07:18:58.561Z,12.68
2022-10-16T07:21:26.951Z,12.90
2022-10-16T07:23:59.020Z,12.99
2022-10-16T07:26:27.264Z,13.06
2022-10-16T07:28:53.952Z,13.36
2022-10-16T07:31:21.685Z,13.02
2022-10-16T07:33:49.291Z,13.00
2022-10-16T07:36:18.853Z,13.09
2022-10-16T07:38:46.889Z,12.77
2022-10-16T07:41:16.425Z,13.06
2022-10-16T07:43:53.955Z,12.85
2022-10-16T07:46:23.097Z,12.34
2022-10-16T07:48:50.161Z,12.86
2022-10-16T07:51:19.700Z,13.16
2022-10-16T07:53:47.012Z,13.70
2022-10-16T07:56:13.705Z,14.07
2022-10-16T07:58:40.464Z,13.79
2022-10-16T08:01:09.732Z,13.58
2022-10-16T08:03:37.012Z,13.76
2022-10-16T08:06:04.470Z,13.41
2022-10-16T08:08:31.492Z,13.97
2022-10-16T08:10:58.154Z,13.41
2022-10-16T08:13:24.986Z,13.56
2022-10-16T08:15:51.558Z,13.08
2022-10-16T08:18:18.262Z,13.83
2022-10-16T08:20:44.841Z,13.98
2022-10-16T08:23:14.726Z,13.97
2022-10-16T08:25:42.345Z,14.34
2022-10-16T08:28:10.945Z,14.47
2022-10-16T08:30:38.028Z,14.82
2022-10-16T08:33:05.023Z,14.73
2022-10-16T08:35:31.627Z,14.74
2022-10-16T08:37:58.282Z,15.02
2022-10-16T08:40:33.720Z,14.87
2022-10-16T08:43:19.228Z,14.99
2022-10-16T08:46:06.998Z,14.91
2022-10-16T08:48:51.664Z,14.81
2022-10-16T08:51:24.771Z,14.64
2022-10-16T08:53:51.268Z,15.09
2022-10-16T08:56:19.506Z,14.77
2022-10-16T09:01:23.977Z,14.93
2022-10-16T09:04:33.655Z,15.06
2022-10-16T09:07:32.318Z,15.15
2022-10-16T09:10:16.795Z,15.63
2022-10-16T09:13:10.653Z,15.22
2022-10-16T09:15:51.739Z,15.20
2022-10-16T09:18:30.139Z,15.30
2022-10-16T09:21:19.284Z,15.09
2022-10-16T09:23:46.230Z,15.23
2022-10-16T09:26:15.124Z,15.48
2022-10-16T09:28:42.159Z,15.43
2022-10-16T09:31:19.344Z,15.41
2022-10-16T09:33:51.453Z,15.62
2022-10-16T09:36:18.945Z,15.94
2022-10-16T09:38:45.520Z,16.00
2022-10-16T09:41:22.198Z,15.72
2022-10-16T09:43:59.964Z,16.12
2022-10-16T09:46:36.359Z,16.09
2022-10-16T09:49:21.912Z,15.87
2022-10-16T09:51:48.554Z,16.04
2022-10-16T09:54:20.405Z,16.08
2022-10-16T09:56:50.275Z,16.19
2022-10-16T09:59:19.251Z,16.13
2022-10-16T10:01:49.092Z,15.46
2022-10-16T10:04:16.358Z,15.62
2022-10-16T10:06:49.332Z,15.60
2022-10-16T10:09:26.917Z,15.78
2022-10-16T10:12:04.047Z,15.41
2022-10-16T10:14:41.089Z,16.40
2022-10-16T10:17:07.644Z,16.23
2022-10-16T10:19:49.337Z,16.73
2022-10-16T10:22:33.954Z,16.75
2022-10-16T10:25:12.663Z,16.90
2022-10-16T10:27:58.623Z,16.60
2022-10-16T10:30:51.257Z,16.58
2022-10-16T10:33:42.368Z,16.53
2022-10-16T10:36:41.846Z,16.83
2022-10-16T10:39:43.190Z,16.75
2022-10-16T10:42:12.842Z,16.92
2022-10-16T10:45:16.958Z,17.06
2022-10-16T10:47:46.435Z,15.99
2022-10-16T10:50:48.345Z,16.49
2022-10-16T10:53:33.715Z,16.80
2022-10-16T10:56:17.705Z,17.23
2022-10-16T10:59:06.394Z,17.54
2022-10-16T11:01:41.864Z,17.23
2022-10-16T11:04:59.937Z,17.17
2022-10-16T11:07:31.209Z,17.49
2022-10-16T11:10:10.338Z,17.74
2022-10-16T11:12:43.339Z,17.71
2022-10-16T11:15:18.292Z,16.85
2022-10-16T11:17:55.076Z,17.32
2022-10-16T11:20:30.162Z,17.58
2022-10-16T11:22:59.615Z,17.68
2022-10-16T11:25:31.918Z,17.10
2022-10-16T11:28:16.325Z,17.59
2022-10-16T11:31:09.124Z,17.74
2022-10-16T11:33:48.087Z,17.84
2022-10-16T11:36:34.808Z,18.01
2022-10-16T11:39:26.277Z,17.95
2022-10-16T11:41:57.102Z,17.72
2022-10-16T11:44:54.705Z,17.93
2022-10-16T11:48:03.356Z,18.27
2022-10-16T11:50:33.048Z,18.05
2022-10-16T11:53:06.584Z,17.93
2022-10-16T11:55:41.633Z,17.94
2022-10-16T11:58:16.691Z,18.09
2022-10-16T12:01:11.670Z,18.13
2022-10-16T12:03:50.673Z,18.05
2022-10-16T12:06:53.397Z,18.07
2022-10-16T12:09:26.154Z,18.54
2022-10-16T12:11:53.040Z,18.65
2022-10-16T12:14:21.471Z,18.46
2022-10-16T12:17:24.068Z,18.05
2022-10-16T12:20:31.771Z,17.96
2022-10-16T12:23:06.854Z,18.03
2022-10-16T12:25:40.201Z,17.98
2022-10-16T12:28:20.330Z,18.56
2022-10-16T12:31:04.490Z,18.65
2022-10-16T12:33:32.189Z,18.54
2022-10-16T12:36:03.163Z,18.46
2022-10-16T12:38:50.483Z,18.52
2022-10-16T12:41:38.779Z,18.17
2022-10-16T12:44:05.503Z,18.48
2022-10-16T12:46:34.101Z,18.66
2022-10-16T12:49:23.153Z,18.24
2022-10-16T12:51:49.879Z,18.69
2022-10-16T12:54:36.430Z,18.57
2022-10-16T12:57:24.681Z,18.17
2022-10-16T13:00:23.175Z,18.46
2022-10-16T13:03:10.323Z,18.35
2022-10-16T13:06:14.953Z,18.02
2022-10-16T13:09:20.884Z,18.22
2022-10-16T13:12:18.234Z,18.24
2022-10-16T13:15:10.651Z,18.60
2022-10-16T13:17:49.412Z,18.59
2022-10-16T13:20:25.064Z,18.56
2022-10-16T13:23:30.275Z,18.97
2022-10-16T13:26:05.659Z,18.54
2022-10-16T13:28:34.465Z,18.31
2022-10-16T13:31:02.677Z,18.32
2022-10-16T13:33:42.453Z,18.33
2022-10-16T13:36:20.909Z,18.67
2022-10-16T13:38:47.650Z,18.59
2022-10-16T13:41:18.068Z,18.37
2022-10-16T13:43:48.500Z,18.50
2022-10-16T13:46:19.790Z,19.06
2022-10-16T13:49:01.605Z,18.48
2022-10-16T13:51:30.455Z,18.58
2022-10-16T13:53:58.551Z,19.04
2022-10-16T13:56:33.761Z,18.91
2022-10-16T13:59:01.710Z,19.03
2022-10-16T14:01:34.585Z,18.65
2022-10-16T14:04:10.198Z,18.73
2022-10-16T14:06:37.971Z,19.04
2022-10-16T14:09:12.875Z,18.85
2022-10-16T14:11:52.889Z,18.60
2022-10-16T14:14:23.299Z,18.38
2022-10-16T14:16:50.148Z,17.99
2022-10-16T14:19:26.827Z,18.08
2022-10-16T14:21:54.045Z,18.89
2022-10-16T14:24:34.557Z,18.94
2022-10-16T14:27:02.172Z,18.93
2022-10-16T14:29:32.541Z,19.00
2022-10-16T14:32:02.497Z,18.69
2022-10-16T14:34:37.591Z,18.90
2022-10-16T14:37:27.680Z,18.13
2022-10-16T14:39:56.142Z,18.35
2022-10-16T14:42:25.706Z,18.52
2022-10-16T14:44:54.161Z,18.30
2022-10-16T14:47:26.405Z,18.25
2022-10-16T14:50:00.062Z,17.84
2022-10-16T14:52:29.016Z,17.88
2022-10-16T14:54:58.065Z,18.24
2022-10-16T14:57:29.118Z,17.65
2022-10-16T14:59:57.182Z,17.36
2022-10-16T15:02:34.043Z,17.40
2022-10-16T15:05:12.828Z,17.29
2022-10-16T15:07:39.440Z,17.29
2022-10-16T15:10:06.220Z,17.88
2022-10-16T15:12:33.347Z,18.13
2022-10-16T15:14:59.945Z,18.03
2022-10-16T15:17:26.837Z,18.00
2022-10-16T15:19:53.660Z,17.57
2022-10-16T15:22:20.228Z,17.68
2022-10-16T15:24:46.818Z,17.78
2022-10-16T15:27:13.529Z,17.81
2022-10-16T15:29:40.127Z,17.79
2022-10-16T15:32:06.678Z,17.64
2022-10-16T15:34:33.362Z,17.62
2022-10-16T15:37:04.161Z,17.44
2022-10-16T15:39:30.757Z,17.35
2022-10-16T15:41:57.330Z,17.27
2022-10-16T15:44:26.524Z,17.22
2022-10-16T15:46:56.373Z,17.05
2022-10-16T15:49:23.275Z,17.10
2022-10-16T15:51:49.859Z,16.94
2022-10-16T15:54:16.501Z,16.98
2022-10-16T15:56:43.086Z,16.93
2022-10-16T15:59:09.787Z,16.86
2022-10-16T16:01:36.905Z,16.80
2022-10-16T16:04:15.476Z,16.81
2022-10-16T16:06:52.193Z,16.70
2022-10-16T16:09:18.824Z,16.76
2022-10-16T16:11:45.455Z,16.73
2022-10-16T16:14:14.283Z,16.67
2022-10-16T16:16:40.976Z,16.64
2022-10-16T16:19:11.403Z,16.49
2022-10-16T16:21:38.831Z,16.62
2022-10-16T16:24:09.330Z,16.58
2022-10-16T16:26:40.478Z,16.56
2022-10-16T16:29:08.161Z,16.56
2022-10-16T16:31:35.862Z,16.50
2022-10-16T16:34:02.926Z,16.51
2022-10-16T16:36:29.922Z,16.42
2022-10-16T16:38:58.024Z,16.30
2022-10-16T16:41:27.478Z,16.32
2022-10-16T16:43:55.511Z,16.06
2022-10-16T16:46:23.428Z,16.09
2022-10-16T16:48:56.362Z,16.03
2022-10-16T16:51:23.049Z,16.02
2022-10-16T16:53:52.218Z,16.10
2022-10-16T16:56:20.046Z,16.02
2022-10-16T16:58:47.755Z,15.99
2022-10-16T17:01:19.737Z,15.97
2022-10-16T17:03:47.550Z,15.93
2022-10-16T17:06:15.400Z,15.87
2022-10-16T17:08:42.968Z,15.71
2022-10-16T17:11:21.327Z,15.67
2022-10-16T17:13:51.261Z,15.72
2022-10-16T17:16:23.743Z,15.64
2022-10-16T17:18:50.486Z,15.63
2022-10-16T17:21:17.205Z,15.51
2022-10-16T17:23:43.859Z,15.52
2022-10-16T17:26:17.403Z,15.41
2022-10-16T17:28:44.852Z,15.43
2022-10-16T17:31:19.892Z,15.50
2022-10-16T17:33:47.403Z,15.49
2022-10-16T17:36:15.169Z,15.30
2022-10-16T17:38:42.666Z,15.16
2022-10-16T17:41:24.021Z,15.08
2022-10-16T17:43:52.042Z,15.18
2022-10-16T17:46:21.506Z,15.08
2022-10-16T17:48:51.210Z,14.90
2022-10-16T17:51:20.309Z,14.97
2022-10-16T17:53:51.866Z,14.81
2022-10-16T17:56:19.192Z,14.96
2022-10-16T17:58:52.315Z,15.00
2022-10-16T18:01:20.682Z,14.98
2022-10-16T18:04:00.088Z,14.88
2022-10-16T18:06:28.040Z,14.99
2022-10-16T18:08:57.744Z,14.98
2022-10-16T18:11:25.094Z,14.97
2022-10-16T18:13:53.355Z,14.91
2022-10-16T18:16:20.338Z,14.76
2022-10-16T18:18:48.169Z,14.54
2022-10-16T18:21:17.887Z,13.89
2022-10-16T18:23:50.828Z,14.07
2022-10-16T18:26:20.179Z,14.25
2022-10-16T18:28:46.964Z,13.97
2022-10-16T18:31:16.626Z,14.04
2022-10-16T18:33:50.600Z,14.17
2022-10-16T18:36:19.949Z,14.34
2022-10-16T18:38:46.713Z,14.45
2022-10-16T18:41:13.465Z,14.59
2022-10-16T18:43:40.423Z,14.60
2022-10-16T18:46:12.249Z,14.49
2022-10-16T18:48:40.393Z,14.16
2022-10-16T18:51:16.174Z,14.39
2022-10-16T18:53:44.782Z,14.35
2022-10-16T18:56:13.058Z,14.45
2022-10-16T18:58:41.543Z,14.57
2022-10-16T19:01:11.210Z,14.49
2022-10-16T19:03:43.184Z,14.38
2022-10-16T19:06:13.894Z,13.84
2022-10-16T19:08:41.357Z,13.88
2022-10-16T19:11:12.699Z,13.71
2022-10-16T19:13:39.455Z,13.83
2022-10-16T19:16:27.037Z,13.96
2022-10-16T19:18:55.983Z,14.11
2022-10-16T19:21:24.544Z,14.19
2022-10-16T19:23:53.100Z,14.17
2022-10-16T19:26:21.373Z,14.19
2022-10-16T19:28:48.461Z,14.18
2022-10-16T19:31:18.535Z,14.32
2022-10-16T19:33:45.841Z,14.41
2022-10-16T19:36:17.263Z,14.38
2022-10-16T19:38:45.472Z,14.26
2022-10-16T19:41:13.579Z,14.24
2022-10-16T19:43:41.035Z,14.29
2022-10-16T19:46:14.092Z,14.29
2022-10-16T19:48:41.565Z,14.25
2022-10-16T19:51:11.786Z,14.17
2022-10-16T19:53:38.406Z,14.14
2022-10-16T19:56:32.168Z,14.16
2022-10-16T19:59:00.136Z,14.21
2022-10-16T20:01:28.941Z,14.09
2022-10-16T20:03:56.165Z,13.98
2022-10-16T20:06:23.286Z,13.83
2022-10-16T20:08:52.051Z,13.81
2022-10-16T20:11:22.091Z,13.93
2022-10-16T20:13:49.354Z,13.98
2022-10-16T20:16:19.091Z,13.91
2022-10-16T20:18:48.441Z,13.95
2022-10-16T20:21:20.892Z,13.68
2022-10-16T20:23:48.998Z,13.79
2022-10-16T20:26:16.558Z,13.72
2022-10-16T20:28:44.003Z,13.56
2022-10-16T20:31:17.538Z,13.53
2022-10-16T20:33:45.022Z,13.75
2022-10-16T20:36:16.139Z,13.81
2022-10-16T20:38:43.430Z,13.92
2022-10-16T20:41:11.109Z,13.82
2022-10-16T20:46:17.020Z,13.88
2022-10-16T20:48:44.220Z,13.78
2022-10-16T20:51:26.136Z,13.76
2022-10-16T20:53:55.780Z,13.63
2022-10-16T20:56:22.969Z,13.49
2022-10-16T20:58:49.831Z,13.48
2022-10-16T21:01:19.048Z,13.48
2022-10-16T21:03:51.694Z,13.43
2022-10-16T21:06:18.367Z,13.46
2022-10-16T21:08:45.296Z,13.46
2022-10-16T21:11:19.122Z,13.53
2022-10-16T21:13:45.995Z,13.42
2022-10-16T21:16:14.171Z,13.26
2022-10-16T21:18:44.615Z,13.18
2022-10-16T21:21:20.728Z,13.19
2022-10-16T21:23:49.277Z,13.26
2022-10-16T21:26:18.306Z,13.47
2022-10-16T21:28:45.247Z,13.43
2022-10-16T21:31:24.464Z,13.43
2022-10-16T21:33:52.798Z,13.35
2022-10-16T21:36:22.609Z,13.58
2022-10-16T21:38:49.714Z,13.38
2022-10-16T21:41:25.147Z,13.07
2022-10-16T21:43:52.387Z,13.08
2022-10-16T21:46:21.475Z,13.13
2022-10-16T21:48:48.548Z,12.82
2022-10-16T21:51:15.658Z,12.76
2022-10-16T21:53:42.253Z,12.63
2022-10-16T21:56:14.656Z,12.81
2022-10-16T21:58:41.817Z,12.82
2022-10-16T22:01:09.949Z,12.94
2022-10-16T22:03:36.705Z,12.59
2022-10-16T22:06:08.447Z,12.54
2022-10-16T22:08:36.550Z,12.45
2022-10-16T22:11:11.678Z,12.52
2022-10-16T22:13:39.043Z,12.63
2022-10-16T22:16:06.189Z,12.55
2022-10-16T22:18:33.520Z,12.17
2022-10-16T22:21:00.212Z,11.96
2022-10-16T22:23:27.125Z,12.14
2022-10-16T22:26:08.888Z,12.16
2022-10-16T22:28:35.874Z,12.40
2022-10-16T22:31:07.780Z,12.51
2022-10-16T22:36:08.363Z,12.55
2022-10-16T22:38:36.413Z,12.76
2022-10-16T22:41:11.691Z,12.60
2022-10-16T22:43:41.407Z,12.32
2022-10-16T22:46:09.913Z,12.67
2022-10-16T22:48:37.425Z,12.69
2022-10-16T22:51:05.800Z,12.27
2022-10-16T22:53:33.346Z,12.37
2022-10-16T22:56:00.119Z,11.98
2022-10-16T22:58:27.093Z,12.12
2022-10-16T23:00:53.945Z,12.01
2022-10-16T23:03:20.751Z,11.90
2022-10-16T23:05:47.397Z,11.85
2022-10-16T23:08:14.277Z,11.59
2022-10-16T23:10:43.769Z,11.90
2022-10-16T23:13:11.120Z,11.78
2022-10-16T23:15:42.968Z,11.92
2022-10-16T23:18:10.385Z,11.68
2022-10-16T23:20:40.616Z,11.75
2022-10-16T23:23:07.917Z,11.81
2022-10-16T23:25:34.882Z,11.58
2022-10-16T23:28:02.895Z,11.51
2022-10-16T23:30:29.658Z,11.82
2022-10-16T23:32:56.310Z,11.95
2022-10-16T23:35:22.928Z,11.95
2022-10-16T23:37:49.667Z,12.08
2022-10-16T23:40:16.331Z,12.18
2022-10-16T23:42:42.995Z,11.82
2022-10-16T23:45:09.581Z,11.67
2022-10-16T23:47:36.153Z,11.64
2022-10-16T23:50:02.802Z,12.01
2022-10-16T23:52:29.506Z,12.00
2022-10-16T23:54:56.053Z,11.77
2022-10-16T23:57:22.634Z,11.75
2022-10-16T23:59:49.254Z,11.85
